Chapel Hill, NC

3:14 AM EDT on 三月 29, 2017 (GMT -0400)
Chesley | | Change Station

高度 385 ft 35.96 °N, 79.03 °W | Updated 3 seconds ago

Clear
56.5 °F
体感気温 56.5 °F
0.0
風 変数 風 から
Gusts 0.0 Mph

今日
高い -- | 低 -- °F
--% 降水確率
昨日
高い -- | 低 -- °F
Precip. -- インチ
気圧 29.96 インチ
視程 10.0 マイル

露点温度 53 °F
湿度 88%
降水 0.00 インチ
積雪深 利用不可。
7:06 AM 7:35 PM
新月, 2% visible
METAR KIGX 290656Z AUTO 30005KT 10SM CLR 15/11 A2997 RMK AO2 SLP143 T01500106
気圧 29.96 インチ
視程 10.0 マイル

露点温度 53 °F
湿度 88%
降水 0.00 インチ
積雪深 利用不可。
7:06 AM 7:35 PM
新月, 2% visible
METAR KIGX 290656Z AUTO 30005KT 10SM CLR 15/11 A2997 RMK AO2 SLP143 T01500106

Get Severe Weather Alerts

Thanks for signing up!

Be on the lookout for a verification email in your inbox.

You'll start receiving the daily forecast at 8 AM.

×

10-Day Weather Forecast

Almanac

天文

Mar. 29, 2017 入り
実時間
常用薄明
航海薄明
天文薄明
可視光の長さ
可照時間
Tomorrow will be .
, % of the Moon is Illuminated

今日の極値

State Highs State Lows

Community

WunderPhotos

Upload Photos

1,962,540 写真がアップロードされました!

WunderBlog® & News

Nearby

空気品質

  空気品質 大気質指数 汚染物質
Not available.

積雪深

Station Depth 高度

地震活動

Distance Mag. Time & Date
Minimum magnitude displayed is 2.5.

地震活動

Distance Mag. Time & Date
Minimum magnitude displayed is 2.5.

沿岸の水温

地名 気温

Stations

最寄りの気象観測所

観測所位置 温度 体感気温(寒さ) 露点温度 湿度 Precip. 高度 更新日時 タイプする
                   

Watches & Warnings

There are currently no watches in effect.